sensor_id;sensor_type;location;lat;lon;timestamp;pressure;altitude;pressure_sealevel;temperature;humidity
15314;BME280;7757;52.626;4.746;2022-10-10T00:00:09;101251.47;;;18.15;58.53
15314;BME280;7757;52.626;4.746;2022-10-10T00:02:36;101241.69;;;18.14;58.49
15314;BME280;7757;52.626;4.746;2022-10-10T00:05:05;101243.41;;;18.26;58.76
15314;BME280;7757;52.626;4.746;2022-10-10T00:07:32;101236.34;;;18.25;59.47
15314;BME280;7757;52.626;4.746;2022-10-10T00:09:58;101236.84;;;18.16;58.58
15314;BME280;7757;52.626;4.746;2022-10-10T00:12:25;101235.22;;;18.15;58.75
15314;BME280;7757;52.626;4.746;2022-10-10T00:14:52;101227.16;;;18.08;58.86
15314;BME280;7757;52.626;4.746;2022-10-10T00:17:18;101232.44;;;18.21;59.08
15314;BME280;7757;52.626;4.746;2022-10-10T00:19:45;101225.75;;;18.24;59.24
15314;BME280;7757;52.626;4.746;2022-10-10T00:22:12;101228.50;;;18.35;58.90
15314;BME280;7757;52.626;4.746;2022-10-10T00:24:39;101225.94;;;18.40;58.88
15314;BME280;7757;52.626;4.746;2022-10-10T00:27:06;101220.00;;;18.32;58.42
15314;BME280;7757;52.626;4.746;2022-10-10T00:29:32;101217.59;;;18.42;58.19
15314;BME280;7757;52.626;4.746;2022-10-10T00:31:59;101220.25;;;18.12;59.14
15314;BME280;7757;52.626;4.746;2022-10-10T00:34:25;101215.38;;;18.21;58.80
15314;BME280;7757;52.626;4.746;2022-10-10T00:36:52;101209.63;;;18.29;58.09
15314;BME280;7757;52.626;4.746;2022-10-10T00:39:19;101204.91;;;18.24;58.83
15314;BME280;7757;52.626;4.746;2022-10-10T00:41:46;101216.41;;;18.20;58.75
15314;BME280;7757;52.626;4.746;2022-10-10T00:44:14;101213.56;;;18.33;58.07
15314;BME280;7757;52.626;4.746;2022-10-10T00:46:41;101210.53;;;18.23;58.79
15314;BME280;7757;52.626;4.746;2022-10-10T00:49:10;101200.59;;;18.35;58.09
15314;BME280;7757;52.626;4.746;2022-10-10T00:51:38;101196.56;;;18.26;58.20
15314;BME280;7757;52.626;4.746;2022-10-10T00:54:08;101196.94;;;18.29;58.42
15314;BME280;7757;52.626;4.746;2022-10-10T00:56:39;101194.16;;;18.18;58.42
15314;BME280;7757;52.626;4.746;2022-10-10T00:59:07;101195.59;;;18.20;58.31
15314;BME280;7757;52.626;4.746;2022-10-10T01:01:36;101194.22;;;18.11;58.55
15314;BME280;7757;52.626;4.746;2022-10-10T01:04:02;101186.81;;;17.89;59.09
15314;BME280;7757;52.626;4.746;2022-10-10T01:06:30;101192.75;;;18.15;58.42
15314;BME280;7757;52.626;4.746;2022-10-10T01:08:57;101188.31;;;18.03;59.05
15314;BME280;7757;52.626;4.746;2022-10-10T01:11:41;101186.31;;;18.10;58.56
15314;BME280;7757;52.626;4.746;2022-10-10T01:14:18;101179.03;;;18.10;58.56
15314;BME280;7757;52.626;4.746;2022-10-10T01:16:52;101172.66;;;18.05;58.27
15314;BME280;7757;52.626;4.746;2022-10-10T01:19:35;101182.06;;;18.02;59.02
15314;BME280;7757;52.626;4.746;2022-10-10T01:22:16;101180.78;;;18.05;58.68
15314;BME280;7757;52.626;4.746;2022-10-10T01:24:54;101171.59;;;18.06;58.99
15314;BME280;7757;52.626;4.746;2022-10-10T01:27:31;101178.50;;;18.20;58.14
15314;BME280;7757;52.626;4.746;2022-10-10T01:30:06;101171.66;;;18.17;58.04
15314;BME280;7757;52.626;4.746;2022-10-10T01:32:39;101173.88;;;18.09;58.44
15314;BME280;7757;52.626;4.746;2022-10-10T01:35:23;101159.41;;;18.15;58.27
15314;BME280;7757;52.626;4.746;2022-10-10T01:37:58;101161.38;;;18.08;58.46
15314;BME280;7757;52.626;4.746;2022-10-10T01:40:30;101162.91;;;18.04;58.34
15314;BME280;7757;52.626;4.746;2022-10-10T01:43:01;101155.31;;;17.94;58.80
15314;BME280;7757;52.626;4.746;2022-10-10T01:45:30;101153.69;;;18.05;58.82
15314;BME280;7757;52.626;4.746;2022-10-10T01:48:00;101154.22;;;17.95;58.64
15314;BME280;7757;52.626;4.746;2022-10-10T01:50:28;101159.63;;;17.95;58.49
15314;BME280;7757;52.626;4.746;2022-10-10T01:53:05;101149.00;;;18.00;58.67
15314;BME280;7757;52.626;4.746;2022-10-10T01:55:46;101147.69;;;18.03;58.88
15314;BME280;7757;52.626;4.746;2022-10-10T01:58:45;101152.13;;;18.15;58.11
15314;BME280;7757;52.626;4.746;2022-10-10T02:01:20;101143.72;;;18.05;58.10
15314;BME280;7757;52.626;4.746;2022-10-10T02:03:57;101137.00;;;18.08;57.99
15314;BME280;7757;52.626;4.746;2022-10-10T02:06:30;101133.25;;;18.09;58.14
15314;BME280;7757;52.626;4.746;2022-10-10T02:09:01;101128.25;;;17.94;58.29
15314;BME280;7757;52.626;4.746;2022-10-10T02:11:30;101126.56;;;17.93;58.97
15314;BME280;7757;52.626;4.746;2022-10-10T02:14:05;101129.41;;;17.98;58.61
15314;BME280;7757;52.626;4.746;2022-10-10T02:16:37;101119.69;;;17.79;58.45
15314;BME280;7757;52.626;4.746;2022-10-10T02:19:07;101115.69;;;17.81;58.76
15314;BME280;7757;52.626;4.746;2022-10-10T02:21:36;101122.38;;;17.79;59.11
15314;BME280;7757;52.626;4.746;2022-10-10T02:24:06;101119.69;;;17.79;58.44
15314;BME280;7757;52.626;4.746;2022-10-10T02:26:34;101124.78;;;17.87;58.56
15314;BME280;7757;52.626;4.746;2022-10-10T02:29:06;101118.31;;;17.70;59.23
15314;BME280;7757;52.626;4.746;2022-10-10T02:31:38;101118.41;;;17.81;59.04
15314;BME280;7757;52.626;4.746;2022-10-10T02:34:10;101109.97;;;17.53;58.76
15314;BME280;7757;52.626;4.746;2022-10-10T02:36:39;101114.47;;;17.77;58.61
15314;BME280;7757;52.626;4.746;2022-10-10T02:39:08;101109.97;;;17.71;58.91
15314;BME280;7757;52.626;4.746;2022-10-10T02:41:36;101101.94;;;17.65;59.17
15314;BME280;7757;52.626;4.746;2022-10-10T02:44:03;101101.72;;;17.66;58.88
15314;BME280;7757;52.626;4.746;2022-10-10T02:46:30;101094.44;;;17.67;58.61
15314;BME280;7757;52.626;4.746;2022-10-10T02:49:00;101098.56;;;17.69;58.76
15314;BME280;7757;52.626;4.746;2022-10-10T02:51:27;101097.19;;;17.60;58.10
15314;BME280;7757;52.626;4.746;2022-10-10T02:53:56;101100.03;;;17.47;58.91
15314;BME280;7757;52.626;4.746;2022-10-10T02:56:22;101098.47;;;17.58;59.08
15314;BME280;7757;52.626;4.746;2022-10-10T02:58:49;101092.75;;;17.48;58.87
15314;BME280;7757;52.626;4.746;2022-10-10T03:01:15;101090.16;;;17.59;58.86
15314;BME280;7757;52.626;4.746;2022-10-10T03:03:42;101084.13;;;17.57;58.47
15314;BME280;7757;52.626;4.746;2022-10-10T03:06:10;101083.94;;;17.34;59.18
15314;BME280;7757;52.626;4.746;2022-10-10T03:08:37;101082.00;;;17.41;59.49
15314;BME280;7757;52.626;4.746;2022-10-10T03:11:04;101086.88;;;17.51;58.68
15314;BME280;7757;52.626;4.746;2022-10-10T03:13:30;101078.41;;;17.47;58.83
15314;BME280;7757;52.626;4.746;2022-10-10T03:15:57;101088.72;;;17.57;58.14
15314;BME280;7757;52.626;4.746;2022-10-10T03:18:24;101088.25;;;17.42;59.20
15314;BME280;7757;52.626;4.746;2022-10-10T03:20:52;101081.78;;;17.43;58.96
15314;BME280;7757;52.626;4.746;2022-10-10T03:23:20;101083.19;;;17.27;58.43
15314;BME280;7757;52.626;4.746;2022-10-10T03:25:47;101087.56;;;17.46;58.04
15314;BME280;7757;52.626;4.746;2022-10-10T03:28:14;101081.09;;;17.29;59.08
15314;BME280;7757;52.626;4.746;2022-10-10T03:30:41;101077.88;;;17.39;58.91
15314;BME280;7757;52.626;4.746;2022-10-10T03:33:08;101077.63;;;17.40;58.88
15314;BME280;7757;52.626;4.746;2022-10-10T03:35:35;101082.28;;;17.33;58.58
15314;BME280;7757;52.626;4.746;2022-10-10T03:38:05;101080.13;;;17.23;59.25
15314;BME280;7757;52.626;4.746;2022-10-10T03:40:37;101080.50;;;17.27;58.38
15314;BME280;7757;52.626;4.746;2022-10-10T03:43:05;101082.28;;;17.33;59.34
15314;BME280;7757;52.626;4.746;2022-10-10T03:45:31;101070.34;;;17.22;59.07
15314;BME280;7757;52.626;4.746;2022-10-10T03:47:58;101074.78;;;17.17;59.40
15314;BME280;7757;52.626;4.746;2022-10-10T03:50:24;101070.13;;;17.24;58.90
15314;BME280;7757;52.626;4.746;2022-10-10T03:52:51;101071.47;;;17.15;59.05
15314;BME280;7757;52.626;4.746;2022-10-10T03:55:17;101070.81;;;17.38;58.74
15314;BME280;7757;52.626;4.746;2022-10-10T03:57:45;101065.53;;;17.24;59.24
15314;BME280;7757;52.626;4.746;2022-10-10T04:00:12;101063.44;;;17.26;59.21
15314;BME280;7757;52.626;4.746;2022-10-10T04:02:39;101062.91;;;17.36;59.47
15314;BME280;7757;52.626;4.746;2022-10-10T04:05:06;101074.72;;;17.23;59.08
15314;BME280;7757;52.626;4.746;2022-10-10T04:07:33;101067.19;;;17.25;59.26
15314;BME280;7757;52.626;4.746;2022-10-10T04:09:59;101061.41;;;17.22;58.68
15314;BME280;7757;52.626;4.746;2022-10-10T04:12:26;101065.44;;;17.13;58.94
15314;BME280;7757;52.626;4.746;2022-10-10T04:14:54;101061.19;;;17.23;59.42
15314;BME280;7757;52.626;4.746;2022-10-10T04:17:20;101061.84;;;17.19;58.46
15314;BME280;7757;52.626;4.746;2022-10-10T04:19:47;101056.22;;;17.20;59.10
15314;BME280;7757;52.626;4.746;2022-10-10T04:22:13;101052.47;;;17.21;58.67
15314;BME280;7757;52.626;4.746;2022-10-10T04:24:40;101049.41;;;17.18;59.37
15314;BME280;7757;52.626;4.746;2022-10-10T04:27:07;101063.22;;;17.28;59.26
15314;BME280;7757;52.626;4.746;2022-10-10T04:29:34;101055.47;;;17.13;58.41
15314;BME280;7757;52.626;4.746;2022-10-10T04:32:02;101063.28;;;17.03;59.34
15314;BME280;7757;52.626;4.746;2022-10-10T04:34:29;101059.34;;;16.99;60.16
15314;BME280;7757;52.626;4.746;2022-10-10T04:36:55;101061.38;;;17.04;59.02
15314;BME280;7757;52.626;4.746;2022-10-10T04:39:22;101064.31;;;17.02;58.96
15314;BME280;7757;52.626;4.746;2022-10-10T04:41:49;101064.97;;;16.98;59.45
15314;BME280;7757;52.626;4.746;2022-10-10T04:44:15;101063.03;;;17.05;59.40
15314;BME280;7757;52.626;4.746;2022-10-10T04:46:42;101069.13;;;17.00;59.28
15314;BME280;7757;52.626;4.746;2022-10-10T04:49:10;101055.88;;;16.92;59.89
15314;BME280;7757;52.626;4.746;2022-10-10T04:51:37;101067.22;;;17.01;59.63
15314;BME280;7757;52.626;4.746;2022-10-10T04:54:03;101067.84;;;17.03;59.80
15314;BME280;7757;52.626;4.746;2022-10-10T04:56:30;101085.53;;;16.99;59.56
15314;BME280;7757;52.626;4.746;2022-10-10T04:58:57;101074.22;;;17.08;59.20
15314;BME280;7757;52.626;4.746;2022-10-10T05:01:23;101073.28;;;17.21;59.88
15314;BME280;7757;52.626;4.746;2022-10-10T05:03:50;101076.13;;;17.26;59.39
15314;BME280;7757;52.626;4.746;2022-10-10T05:06:18;101066.88;;;17.15;59.76
15314;BME280;7757;52.626;4.746;2022-10-10T05:08:44;101078.84;;;17.01;59.80
15314;BME280;7757;52.626;4.746;2022-10-10T05:11:11;101072.16;;;17.28;58.81
15314;BME280;7757;52.626;4.746;2022-10-10T05:13:39;101080.25;;;17.28;59.72
15314;BME280;7757;52.626;4.746;2022-10-10T05:16:05;101078.38;;;17.29;59.57
15314;BME280;7757;52.626;4.746;2022-10-10T05:18:32;101089.22;;;17.04;59.00
15314;BME280;7757;52.626;4.746;2022-10-10T05:21:01;101079.38;;;17.35;59.82
15314;BME280;7757;52.626;4.746;2022-10-10T05:23:28;101073.72;;;17.36;59.70
15314;BME280;7757;52.626;4.746;2022-10-10T05:25:55;101075.69;;;17.47;58.99
15314;BME280;7757;52.626;4.746;2022-10-10T05:28:22;101076.59;;;17.41;59.42
15314;BME280;7757;52.626;4.746;2022-10-10T05:30:49;101066.63;;;17.42;59.38
15314;BME280;7757;52.626;4.746;2022-10-10T05:33:16;101073.63;;;17.24;59.09
15314;BME280;7757;52.626;4.746;2022-10-10T05:35:44;101076.88;;;17.15;59.60
15314;BME280;7757;52.626;4.746;2022-10-10T05:38:10;101079.41;;;17.10;58.88
15314;BME280;7757;52.626;4.746;2022-10-10T05:40:39;101084.00;;;17.27;59.31
15314;BME280;7757;52.626;4.746;2022-10-10T05:43:06;101078.84;;;17.01;59.17
15314;BME280;7757;52.626;4.746;2022-10-10T05:45:33;101083.19;;;17.27;59.06
15314;BME280;7757;52.626;4.746;2022-10-10T05:47:59;101086.75;;;17.03;60.65
15314;BME280;7757;52.626;4.746;2022-10-10T05:50:29;101073.94;;;17.16;60.09
15314;BME280;7757;52.626;4.746;2022-10-10T05:52:56;101074.63;;;17.12;60.84
15314;BME280;7757;52.626;4.746;2022-10-10T05:55:23;101073.25;;;17.03;60.18
15314;BME280;7757;52.626;4.746;2022-10-10T05:57:51;101077.63;;;17.22;60.64
15314;BME280;7757;52.626;4.746;2022-10-10T06:00:18;101068.47;;;17.23;60.94
15314;BME280;7757;52.626;4.746;2022-10-10T06:02:44;101082.38;;;17.26;60.22
15314;BME280;7757;52.626;4.746;2022-10-10T06:05:11;101079.16;;;16.93;60.97
15314;BME280;7757;52.626;4.746;2022-10-10T06:07:37;101080.31;;;17.22;60.34
15314;BME280;7757;52.626;4.746;2022-10-10T06:10:04;101084.66;;;17.05;60.32
15314;BME280;7757;52.626;4.746;2022-10-10T06:12:31;101084.75;;;16.92;60.53
15314;BME280;7757;52.626;4.746;2022-10-10T06:14:59;101088.97;;;16.88;60.62
15314;BME280;7757;52.626;4.746;2022-10-10T06:17:26;101082.34;;;17.08;60.42
15314;BME280;7757;52.626;4.746;2022-10-10T06:19:52;101087.19;;;17.00;60.25
15314;BME280;7757;52.626;4.746;2022-10-10T06:22:19;101077.13;;;16.89;60.86
15314;BME280;7757;52.626;4.746;2022-10-10T06:24:45;101079.63;;;16.84;60.32
15314;BME280;7757;52.626;4.746;2022-10-10T06:27:12;101073.84;;;17.05;59.87
15314;BME280;7757;52.626;4.746;2022-10-10T06:29:39;101072.72;;;16.94;59.08
15314;BME280;7757;52.626;4.746;2022-10-10T06:32:07;101069.59;;;16.66;60.73
15314;BME280;7757;52.626;4.746;2022-10-10T06:34:33;101069.56;;;16.72;59.93
15314;BME280;7757;52.626;4.746;2022-10-10T06:37:00;101073.16;;;17.09;60.24
15314;BME280;7757;52.626;4.746;2022-10-10T06:39:26;101066.34;;;17.07;59.60
15314;BME280;7757;52.626;4.746;2022-10-10T06:41:53;101074.63;;;17.30;58.68
15314;BME280;7757;52.626;4.746;2022-10-10T06:44:20;101067.50;;;17.17;58.88
15314;BME280;7757;52.626;4.746;2022-10-10T06:46:46;101071.09;;;17.11;58.79
15314;BME280;7757;52.626;4.746;2022-10-10T06:49:14;101080.22;;;17.10;58.96
15314;BME280;7757;52.626;4.746;2022-10-10T06:51:41;101088.09;;;16.94;59.86
15314;BME280;7757;52.626;4.746;2022-10-10T06:54:07;101083.78;;;17.29;58.62
15314;BME280;7757;52.626;4.746;2022-10-10T06:56:34;101091.09;;;17.47;58.56
15314;BME280;7757;52.626;4.746;2022-10-10T06:59:01;101088.28;;;17.17;58.50
15314;BME280;7757;52.626;4.746;2022-10-10T07:01:27;101075.38;;;17.37;58.57
15314;BME280;7757;52.626;4.746;2022-10-10T07:03:54;101094.78;;;17.52;58.29
15314;BME280;7757;52.626;4.746;2022-10-10T07:06:22;101078.28;;;17.60;57.90
15314;BME280;7757;52.626;4.746;2022-10-10T07:08:48;101092.88;;;18.37;56.81
15314;BME280;7757;52.626;4.746;2022-10-10T07:11:15;101091.41;;;18.53;56.24
15314;BME280;7757;52.626;4.746;2022-10-10T07:13:41;101099.69;;;18.69;55.85
15314;BME280;7757;52.626;4.746;2022-10-10T07:16:09;101090.63;;;18.75;55.34
15314;BME280;7757;52.626;4.746;2022-10-10T07:18:36;101096.66;;;18.77;55.57
15314;BME280;7757;52.626;4.746;2022-10-10T07:21:03;101100.53;;;18.81;55.82
15314;BME280;7757;52.626;4.746;2022-10-10T07:23:34;101083.72;;;18.91;55.19
15314;BME280;7757;52.626;4.746;2022-10-10T07:26:03;101100.44;;;19.00;55.14
15314;BME280;7757;52.626;4.746;2022-10-10T07:28:30;101078.28;;;18.91;55.26
15314;BME280;7757;52.626;4.746;2022-10-10T07:30:59;101093.97;;;19.01;55.57
15314;BME280;7757;52.626;4.746;2022-10-10T07:33:30;101090.06;;;18.97;55.15
15314;BME280;7757;52.626;4.746;2022-10-10T07:35:56;101103.28;;;19.05;55.10
15314;BME280;7757;52.626;4.746;2022-10-10T07:38:23;101091.38;;;19.06;55.24
15314;BME280;7757;52.626;4.746;2022-10-10T07:40:51;101101.28;;;19.12;55.32
15314;BME280;7757;52.626;4.746;2022-10-10T07:43:18;101096.78;;;19.29;54.84
15314;BME280;7757;52.626;4.746;2022-10-10T07:45:45;101096.22;;;19.38;54.61
15314;BME280;7757;52.626;4.746;2022-10-10T07:48:11;101099.31;;;19.42;54.52
15314;BME280;7757;52.626;4.746;2022-10-10T07:50:39;101100.25;;;19.47;54.45
15314;BME280;7757;52.626;4.746;2022-10-10T07:53:07;101103.53;;;19.49;54.34
15314;BME280;7757;52.626;4.746;2022-10-10T07:55:33;101099.97;;;19.61;54.54
15314;BME280;7757;52.626;4.746;2022-10-10T07:58:01;101107.28;;;19.72;54.13
15314;BME280;7757;52.626;4.746;2022-10-10T08:00:28;101115.19;;;19.73;53.61
15314;BME280;7757;52.626;4.746;2022-10-10T08:02:55;101123.78;;;19.70;53.97
15314;BME280;7757;52.626;4.746;2022-10-10T08:05:22;101119.41;;;19.69;53.90
15314;BME280;7757;52.626;4.746;2022-10-10T08:07:49;101115.75;;;19.75;54.00
15314;BME280;7757;52.626;4.746;2022-10-10T08:10:16;101111.88;;;19.71;53.67
15314;BME280;7757;52.626;4.746;2022-10-10T08:12:42;101119.06;;;19.77;53.21
15314;BME280;7757;52.626;4.746;2022-10-10T08:15:11;101129.81;;;19.84;53.50
15314;BME280;7757;52.626;4.746;2022-10-10T08:17:37;101135.56;;;19.87;53.60
15314;BME280;7757;52.626;4.746;2022-10-10T08:20:05;101139.69;;;19.90;53.55
15314;BME280;7757;52.626;4.746;2022-10-10T08:22:31;101140.72;;;20.00;53.23
15314;BME280;7757;52.626;4.746;2022-10-10T08:24:58;101138.97;;;19.94;53.15
15314;BME280;7757;52.626;4.746;2022-10-10T08:27:24;101143.81;;;19.92;53.54
15314;BME280;7757;52.626;4.746;2022-10-10T08:29:52;101150.53;;;19.90;53.68
15314;BME280;7757;52.626;4.746;2022-10-10T08:32:19;101147.25;;;19.88;53.78
15314;BME280;7757;52.626;4.746;2022-10-10T08:34:46;101144.44;;;19.83;53.84
15314;BME280;7757;52.626;4.746;2022-10-10T08:37:13;101148.44;;;19.92;53.64
15314;BME280;7757;52.626;4.746;2022-10-10T08:39:39;101150.66;;;19.95;53.86
15314;BME280;7757;52.626;4.746;2022-10-10T08:42:06;101151.69;;;20.05;53.62
15314;BME280;7757;52.626;4.746;2022-10-10T08:44:41;101141.38;;;20.31;52.60
15314;BME280;7757;52.626;4.746;2022-10-10T08:47:12;101151.94;;;20.44;52.66
15314;BME280;7757;52.626;4.746;2022-10-10T08:49:45;101153.53;;;20.56;52.22
15314;BME280;7757;52.626;4.746;2022-10-10T08:52:26;101158.72;;;20.58;52.13
15314;BME280;7757;52.626;4.746;2022-10-10T08:54:56;101144.53;;;20.39;52.07
15314;BME280;7757;52.626;4.746;2022-10-10T08:57:26;101158.81;;;20.23;52.72
15314;BME280;7757;52.626;4.746;2022-10-10T08:59:57;101164.25;;;20.35;52.89
15314;BME280;7757;52.626;4.746;2022-10-10T09:02:29;101172.50;;;20.68;51.93
15314;BME280;7757;52.626;4.746;2022-10-10T09:04:59;101163.44;;;20.79;51.62
15314;BME280;7757;52.626;4.746;2022-10-10T09:07:47;101169.41;;;20.93;51.42
15314;BME280;7757;52.626;4.746;2022-10-10T09:10:24;101171.16;;;20.99;51.22
15314;BME280;7757;52.626;4.746;2022-10-10T09:13:02;101172.38;;;20.91;50.89
15314;BME280;7757;52.626;4.746;2022-10-10T09:15:34;101173.03;;;20.98;51.13
15314;BME280;7757;52.626;4.746;2022-10-10T09:18:11;101175.84;;;21.03;51.22
15314;BME280;7757;52.626;4.746;2022-10-10T09:20:47;101170.16;;;21.05;51.43
15314;BME280;7757;52.626;4.746;2022-10-10T09:23:20;101158.94;;;21.01;51.76
15314;BME280;7757;52.626;4.746;2022-10-10T09:25:50;101167.69;;;21.03;51.97
15314;BME280;7757;52.626;4.746;2022-10-10T09:28:22;101162.94;;;21.10;51.08
15314;BME280;7757;52.626;4.746;2022-10-10T09:30:56;101172.66;;;21.23;50.82
15314;BME280;7757;52.626;4.746;2022-10-10T09:33:30;101167.44;;;21.05;51.56
15314;BME280;7757;52.626;4.746;2022-10-10T09:36:04;101175.28;;;21.01;51.55
15314;BME280;7757;52.626;4.746;2022-10-10T09:38:34;101177.22;;;20.89;51.84
15314;BME280;7757;52.626;4.746;2022-10-10T09:41:06;101186.09;;;20.85;51.50
15314;BME280;7757;52.626;4.746;2022-10-10T09:43:34;101180.59;;;20.80;51.77
15314;BME280;7757;52.626;4.746;2022-10-10T09:46:01;101187.91;;;20.79;51.81
15314;BME280;7757;52.626;4.746;2022-10-10T09:48:30;101195.94;;;20.86;52.17
15314;BME280;7757;52.626;4.746;2022-10-10T09:50:58;101192.03;;;20.82;51.80
15314;BME280;7757;52.626;4.746;2022-10-10T09:53:26;101208.53;;;20.75;52.31
15314;BME280;7757;52.626;4.746;2022-10-10T09:55:53;101208.09;;;20.67;52.51
15314;BME280;7757;52.626;4.746;2022-10-10T09:58:25;101217.78;;;20.63;52.94
15314;BME280;7757;52.626;4.746;2022-10-10T10:00:54;101210.63;;;20.73;52.70
15314;BME280;7757;52.626;4.746;2022-10-10T10:03:22;101203.81;;;20.71;53.00
15314;BME280;7757;52.626;4.746;2022-10-10T10:05:56;101213.56;;;20.83;52.65
15314;BME280;7757;52.626;4.746;2022-10-10T10:08:27;101223.38;;;20.84;52.52
15314;BME280;7757;52.626;4.746;2022-10-10T10:10:55;101220.47;;;20.91;52.76
15314;BME280;7757;52.626;4.746;2022-10-10T10:13:27;101225.53;;;20.99;52.22
15314;BME280;7757;52.626;4.746;2022-10-10T10:16:02;101225.06;;;21.02;52.83
15314;BME280;7757;52.626;4.746;2022-10-10T10:18:30;101232.75;;;20.93;52.81
15314;BME280;7757;52.626;4.746;2022-10-10T10:21:17;101235.75;;;20.92;52.43
15314;BME280;7757;52.626;4.746;2022-10-10T10:23:51;101235.25;;;20.95;52.77
15314;BME280;7757;52.626;4.746;2022-10-10T10:26:21;101237.97;;;20.95;53.26
15314;BME280;7757;52.626;4.746;2022-10-10T10:28:49;101241.19;;;20.92;53.11
15314;BME280;7757;52.626;4.746;2022-10-10T10:31:23;101237.06;;;20.89;53.42
15314;BME280;7757;52.626;4.746;2022-10-10T10:34:02;101235.97;;;20.90;53.21
15314;BME280;7757;52.626;4.746;2022-10-10T10:36:41;101250.81;;;20.99;52.99
15314;BME280;7757;52.626;4.746;2022-10-10T10:39:22;101251.66;;;21.00;52.82
15314;BME280;7757;52.626;4.746;2022-10-10T10:41:55;101249.06;;;20.93;52.94
15314;BME280;7757;52.626;4.746;2022-10-10T10:44:33;101257.09;;;21.00;52.83
15314;BME280;7757;52.626;4.746;2022-10-10T10:47:14;101264.69;;;20.98;53.59
15314;BME280;7757;52.626;4.746;2022-10-10T10:49:54;101264.19;;;21.01;53.41
15314;BME280;7757;52.626;4.746;2022-10-10T10:52:43;101266.34;;;20.99;53.32
15314;BME280;7757;52.626;4.746;2022-10-10T10:55:24;101279.94;;;20.99;53.72
15314;BME280;7757;52.626;4.746;2022-10-10T10:58:10;101282.53;;;20.94;53.50
15314;BME280;7757;52.626;4.746;2022-10-10T11:00:45;101289.97;;;20.98;53.54
15314;BME280;7757;52.626;4.746;2022-10-10T11:03:25;101284.19;;;20.95;53.83
15314;BME280;7757;52.626;4.746;2022-10-10T11:05:59;101292.59;;;20.93;53.74
15314;BME280;7757;52.626;4.746;2022-10-10T11:08:45;101284.34;;;20.88;53.95
15314;BME280;7757;52.626;4.746;2022-10-10T11:11:40;101304.38;;;20.71;54.12
15314;BME280;7757;52.626;4.746;2022-10-10T11:14:18;101290.34;;;20.62;54.79
15314;BME280;7757;52.626;4.746;2022-10-10T11:16:51;101279.59;;;20.55;54.33
15314;BME280;7757;52.626;4.746;2022-10-10T11:19:25;101305.81;;;20.62;54.41
15314;BME280;7757;52.626;4.746;2022-10-10T11:21:59;101296.84;;;20.61;55.04
15314;BME280;7757;52.626;4.746;2022-10-10T11:24:35;101282.81;;;20.52;54.89
15314;BME280;7757;52.626;4.746;2022-10-10T11:27:09;101302.19;;;20.56;54.77
15314;BME280;7757;52.626;4.746;2022-10-10T11:29:48;101295.25;;;20.48;54.27
15314;BME280;7757;52.626;4.746;2022-10-10T11:32:20;101311.53;;;20.48;54.88
15314;BME280;7757;52.626;4.746;2022-10-10T11:35:00;101300.78;;;20.42;55.18
15314;BME280;7757;52.626;4.746;2022-10-10T11:37:30;101310.25;;;20.39;55.44
15314;BME280;7757;52.626;4.746;2022-10-10T11:40:03;101301.72;;;20.47;54.80
15314;BME280;7757;52.626;4.746;2022-10-10T11:42:34;101312.69;;;20.52;54.80
15314;BME280;7757;52.626;4.746;2022-10-10T11:45:12;101318.63;;;20.38;55.36
15314;BME280;7757;52.626;4.746;2022-10-10T11:47:41;101317.47;;;20.34;54.89
15314;BME280;7757;52.626;4.746;2022-10-10T11:50:14;101322.91;;;20.34;55.66
15314;BME280;7757;52.626;4.746;2022-10-10T11:52:53;101324.31;;;20.36;55.61
15314;BME280;7757;52.626;4.746;2022-10-10T11:55:26;101333.84;;;20.62;55.79
15314;BME280;7757;52.626;4.746;2022-10-10T11:58:13;101329.53;;;20.78;55.96
15314;BME280;7757;52.626;4.746;2022-10-10T12:00:47;101345.22;;;20.87;56.11
15314;BME280;7757;52.626;4.746;2022-10-10T12:03:15;101351.22;;;21.01;55.70
15314;BME280;7757;52.626;4.746;2022-10-10T12:05:47;101359.84;;;21.09;55.38
15314;BME280;7757;52.626;4.746;2022-10-10T12:08:18;101371.06;;;21.13;55.23
15314;BME280;7757;52.626;4.746;2022-10-10T12:10:48;101376.69;;;21.23;55.63
15314;BME280;7757;52.626;4.746;2022-10-10T12:13:24;101376.88;;;21.17;55.21
15314;BME280;7757;52.626;4.746;2022-10-10T12:15:54;101383.81;;;21.24;55.29
15314;BME280;7757;52.626;4.746;2022-10-10T12:18:27;101394.06;;;21.34;55.33
15314;BME280;7757;52.626;4.746;2022-10-10T12:21:07;101388.78;;;21.44;55.18
15314;BME280;7757;52.626;4.746;2022-10-10T12:23:35;101397.31;;;21.47;54.71
15314;BME280;7757;52.626;4.746;2022-10-10T12:26:02;101392.41;;;21.61;54.33
15314;BME280;7757;52.626;4.746;2022-10-10T12:28:35;101391.91;;;21.64;54.15
15314;BME280;7757;52.626;4.746;2022-10-10T12:31:26;101410.38;;;21.62;54.30
15314;BME280;7757;52.626;4.746;2022-10-10T12:37:09;101421.03;;;21.80;54.18
15314;BME280;7757;52.626;4.746;2022-10-10T12:39:37;101434.06;;;21.90;54.62
15314;BME280;7757;52.626;4.746;2022-10-10T12:42:27;101436.84;;;21.95;54.06
15314;BME280;7757;52.626;4.746;2022-10-10T12:44:56;101425.31;;;22.04;53.94
15314;BME280;7757;52.626;4.746;2022-10-10T12:47:30;101424.41;;;21.99;53.93
15314;BME280;7757;52.626;4.746;2022-10-10T12:50:00;101451.63;;;21.70;53.48
15314;BME280;7757;52.626;4.746;2022-10-10T12:52:30;101434.97;;;21.95;53.09
15314;BME280;7757;52.626;4.746;2022-10-10T12:55:04;101431.41;;;22.11;53.14
15314;BME280;7757;52.626;4.746;2022-10-10T12:57:34;101443.53;;;22.20;52.78
15314;BME280;7757;52.626;4.746;2022-10-10T13:00:13;101445.13;;;22.16;52.93
15314;BME280;7757;52.626;4.746;2022-10-10T13:02:42;101457.78;;;22.22;53.50
15314;BME280;7757;52.626;4.746;2022-10-10T13:05:11;101457.50;;;22.24;53.12
15314;BME280;7757;52.626;4.746;2022-10-10T13:07:40;101463.97;;;22.35;53.05
15314;BME280;7757;52.626;4.746;2022-10-10T13:10:19;101471.72;;;22.43;53.24
15314;BME280;7757;52.626;4.746;2022-10-10T13:12:57;101458.00;;;22.38;53.23
15314;BME280;7757;52.626;4.746;2022-10-10T13:15:27;101483.84;;;22.52;52.81
15314;BME280;7757;52.626;4.746;2022-10-10T13:17:54;101489.44;;;22.62;52.90